Time;durP1;ratioP1;P1;durP2;ratioP2;P2;SDS_P1;SDS_P2;PMS_P1;PMS_P2;Temp;Humidity;BMP_temperature;BMP_pressure;BME280_temperature;BME280_humidity;BME280_pressure;Samples;Min_cycle;Max_cycle;Signal;HPM_P1;HPM_P2
2023/09/24 00:00:55;;;;;;;14.38;8.40;;;12.30;99.90;;;;;;5058576;28;20079;-74
2023/09/24 00:03:21;;;;;;;14.25;8.80;;;12.30;99.90;;;;;;5060581;28;20029;-74
2023/09/24 00:05:46;;;;;;;16.73;9.88;;;12.30;99.90;;;;;;5062693;28;20393;-75
2023/09/24 00:08:12;;;;;;;15.60;9.30;;;12.30;99.90;;;;;;5064113;28;20025;-74
2023/09/24 00:10:38;;;;;;;15.98;8.90;;;12.20;99.90;;;;;;5062989;28;20158;-74
2023/09/24 00:13:04;;;;;;;14.88;8.95;;;12.20;99.90;;;;;;5061424;28;20025;-74
2023/09/24 00:15:32;;;;;;;18.90;10.75;;;12.20;99.90;;;;;;5064288;28;20029;-75
2023/09/24 00:17:59;;;;;;;15.52;9.45;;;12.20;99.90;;;;;;5062669;28;20024;-76
2023/09/24 00:20:25;;;;;;;16.25;9.32;;;12.10;99.90;;;;;;5062636;28;20123;-76
2023/09/24 00:22:51;;;;;;;17.90;10.07;;;12.10;99.90;;;;;;5062773;28;20028;-75
2023/09/24 00:25:17;;;;;;;16.45;9.57;;;12.10;99.90;;;;;;5063358;28;20028;-76
2023/09/24 00:27:43;;;;;;;17.80;10.20;;;12.10;99.90;;;;;;5062247;28;20051;-75
2023/09/24 00:30:09;;;;;;;18.02;10.50;;;12.00;99.90;;;;;;5062414;28;20153;-76
2023/09/24 00:32:35;;;;;;;16.73;10.55;;;12.10;99.90;;;;;;5062768;28;20021;-74
2023/09/24 00:35:01;;;;;;;17.60;11.10;;;12.10;99.90;;;;;;5063774;28;20075;-75
2023/09/24 00:37:27;;;;;;;17.23;11.25;;;12.00;99.90;;;;;;5063236;28;20052;-74
2023/09/24 00:39:53;;;;;;;16.50;10.70;;;11.90;99.90;;;;;;5062829;28;20029;-74
2023/09/24 00:42:18;;;;;;;20.90;11.00;;;12.00;99.90;;;;;;5061437;28;20040;-73
2023/09/24 00:44:44;;;;;;;16.83;10.02;;;11.90;99.90;;;;;;5061994;28;20048;-75
2023/09/24 00:47:11;;;;;;;15.32;9.93;;;11.90;99.90;;;;;;5061908;28;20024;-74
2023/09/24 00:49:37;;;;;;;17.00;10.73;;;11.80;99.90;;;;;;5062918;28;20056;-75
2023/09/24 00:52:03;;;;;;;14.82;9.18;;;11.80;99.90;;;;;;5063010;28;20060;-73
2023/09/24 00:54:30;;;;;;;15.27;9.45;;;11.80;99.90;;;;;;5061135;28;20036;-74
2023/09/24 00:56:58;;;;;;;15.15;9.52;;;11.70;99.90;;;;;;5062664;28;20104;-74
2023/09/24 00:59:25;;;;;;;16.85;9.20;;;11.70;99.90;;;;;;5061895;28;20021;-75
2023/09/24 01:01:51;;;;;;;17.40;10.13;;;11.70;99.90;;;;;;5062374;28;20021;-75
2023/09/24 01:04:17;;;;;;;14.05;9.35;;;11.60;99.90;;;;;;5063009;28;20037;-75
2023/09/24 01:06:44;;;;;;;16.65;9.85;;;11.60;99.90;;;;;;5061132;28;20090;-75
2023/09/24 01:09:13;;;;;;;17.10;9.98;;;11.60;99.90;;;;;;5062601;28;20083;-74
2023/09/24 01:11:39;;;;;;;19.95;11.23;;;11.50;99.90;;;;;;5062660;28;20129;-74
2023/09/24 01:14:05;;;;;;;19.50;10.20;;;11.50;99.90;;;;;;5061070;28;20053;-75
2023/09/24 01:16:32;;;;;;;18.45;11.00;;;11.50;99.90;;;;;;5063204;28;20402;-75
2023/09/24 01:18:58;;;;;;;19.23;11.50;;;11.60;99.90;;;;;;5061036;28;20417;-74
2023/09/24 01:21:27;;;;;;;21.10;11.52;;;11.50;99.90;;;;;;5063057;28;20025;-74
2023/09/24 01:23:54;;;;;;;22.65;11.73;;;11.50;99.90;;;;;;5062580;28;20033;-75
2023/09/24 01:26:21;;;;;;;18.23;11.13;;;11.50;99.90;;;;;;5062850;28;20024;-74
2023/09/24 01:28:47;;;;;;;17.10;10.40;;;11.50;99.90;;;;;;5061573;28;20047;-75
2023/09/24 01:31:15;;;;;;;16.92;10.70;;;11.50;99.90;;;;;;5062337;28;20048;-75
2023/09/24 01:33:41;;;;;;;16.70;10.48;;;11.50;99.90;;;;;;5062373;28;20060;-75
2023/09/24 01:36:10;;;;;;;18.35;9.88;;;11.50;99.90;;;;;;5062384;28;20041;-74
2023/09/24 01:38:40;;;;;;;15.85;10.07;;;11.40;99.90;;;;;;5060400;28;20056;-75
2023/09/24 01:41:12;;;;;;;15.77;9.77;;;11.40;99.90;;;;;;5061548;28;20013;-75
2023/09/24 01:43:39;;;;;;;17.83;10.93;;;11.40;99.90;;;;;;5061872;28;20065;-75
2023/09/24 01:46:08;;;;;;;16.50;9.80;;;11.40;99.90;;;;;;5060404;28;20036;-75
2023/09/24 01:48:35;;;;;;;15.18;10.18;;;11.30;99.90;;;;;;5060411;28;20028;-75
2023/09/24 01:51:08;;;;;;;22.90;10.73;;;11.30;99.90;;;;;;5062129;28;20048;-75
2023/09/24 01:53:35;;;;;;;20.83;10.73;;;11.40;99.90;;;;;;5060699;28;21332;-75
2023/09/24 01:56:02;;;;;;;20.42;11.02;;;11.30;99.90;;;;;;5059206;28;20040;-75
2023/09/24 01:58:28;;;;;;;19.88;10.48;;;11.40;99.90;;;;;;5061326;28;20029;-76
2023/09/24 02:00:54;;;;;;;19.05;10.10;;;11.40;99.90;;;;;;5061015;28;20021;-76
2023/09/24 02:03:20;;;;;;;16.83;10.15;;;11.30;99.90;;;;;;5061790;28;20055;-75
2023/09/24 02:05:46;;;;;;;18.52;9.98;;;11.30;99.90;;;;;;5061616;28;20060;-75
2023/09/24 02:08:12;;;;;;;16.42;10.50;;;11.30;99.90;;;;;;5059486;28;20025;-75
2023/09/24 02:10:40;;;;;;;16.17;10.05;;;11.30;99.90;;;;;;5061884;28;20705;-75
2023/09/24 02:13:07;;;;;;;14.98;9.40;;;11.30;99.90;;;;;;5060409;28;20025;-76
2023/09/24 02:15:33;;;;;;;18.33;10.00;;;11.20;99.90;;;;;;5061207;28;20041;-76
2023/09/24 02:17:59;;;;;;;15.20;9.77;;;11.20;99.90;;;;;;5059977;28;20021;-76
2023/09/24 02:20:25;;;;;;;16.83;9.90;;;11.20;99.90;;;;;;5060475;28;20504;-75
2023/09/24 02:22:59;;;;;;;16.48;9.63;;;11.20;99.90;;;;;;5061119;28;20052;-78
2023/09/24 02:25:29;;;;;;;15.77;9.57;;;11.20;99.90;;;;;;5061171;28;20040;-76
2023/09/24 02:27:56;;;;;;;13.60;8.45;;;11.20;99.90;;;;;;5060751;28;20264;-76
2023/09/24 02:30:23;;;;;;;14.27;8.85;;;11.20;99.90;;;;;;5060241;28;20029;-75
2023/09/24 02:32:49;;;;;;;14.57;8.43;;;11.20;99.90;;;;;;5061298;28;20039;-76
2023/09/24 02:35:16;;;;;;;15.25;8.55;;;11.10;99.90;;;;;;5060761;28;20021;-76
2023/09/24 02:37:45;;;;;;;13.45;7.90;;;11.10;99.90;;;;;;5060393;28;20047;-76
2023/09/24 02:40:22;;;;;;;13.35;8.35;;;11.10;99.90;;;;;;5061041;28;20017;-77
2023/09/24 02:42:49;;;;;;;14.93;8.65;;;11.10;99.90;;;;;;5060656;28;20045;-76
2023/09/24 02:45:15;;;;;;;18.50;9.00;;;11.00;99.90;;;;;;5061098;28;20045;-77
2023/09/24 02:47:42;;;;;;;18.42;8.15;;;11.00;99.90;;;;;;5060083;28;20051;-76
2023/09/24 02:50:08;;;;;;;38.25;8.85;;;11.00;99.90;;;;;;5057948;28;20031;-76
2023/09/24 02:52:35;;;;;;;112.20;10.43;;;11.00;99.90;;;;;;5061172;28;20096;-77
2023/09/24 02:55:03;;;;;;;249.95;11.30;;;11.00;99.90;;;;;;5059792;28;20040;-75
2023/09/24 02:57:29;;;;;;;90.30;8.88;;;11.00;99.90;;;;;;5059728;28;20028;-76
2023/09/24 02:59:57;;;;;;;14.95;7.28;;;11.00;99.90;;;;;;5061346;28;20040;-76
2023/09/24 03:02:23;;;;;;;71.15;7.95;;;11.00;99.90;;;;;;5058815;28;20036;-75
2023/09/24 03:04:50;;;;;;;61.05;7.53;;;10.90;99.90;;;;;;5060748;28;20041;-75
2023/09/24 03:07:15;;;;;;;88.38;6.95;;;10.80;99.90;;;;;;5059255;28;20041;-77
2023/09/24 03:09:41;;;;;;;62.90;5.88;;;10.90;99.90;;;;;;5060509;28;21152;-75
2023/09/24 03:12:07;;;;;;;52.97;6.03;;;10.90;99.90;;;;;;5060827;28;20072;-76
2023/09/24 03:14:33;;;;;;;74.03;5.82;;;10.70;99.90;;;;;;5058785;28;20049;-76
2023/09/24 03:16:59;;;;;;;48.70;5.35;;;10.70;99.90;;;;;;5059889;28;20028;-75
2023/09/24 03:19:24;;;;;;;48.13;5.25;;;10.70;99.90;;;;;;5060688;28;20520;-77
2023/09/24 03:21:50;;;;;;;36.17;5.38;;;10.70;99.90;;;;;;5060599;28;20021;-75
2023/09/24 03:24:16;;;;;;;45.13;5.95;;;10.60;99.90;;;;;;5058408;28;20048;-75
2023/09/24 03:26:42;;;;;;;35.55;5.53;;;10.70;99.90;;;;;;5060347;28;20124;-75
2023/09/24 03:29:08;;;;;;;22.60;4.85;;;10.60;99.90;;;;;;5058924;28;20084;-75
2023/09/24 03:31:33;;;;;;;14.30;5.50;;;10.60;99.90;;;;;;5059237;28;20021;-76
2023/09/24 03:33:59;;;;;;;48.17;7.90;;;10.60;99.90;;;;;;5061211;28;20103;-76
2023/09/24 03:36:25;;;;;;;58.17;6.78;;;10.60;99.90;;;;;;5060066;28;20048;-77
2023/09/24 03:38:51;;;;;;;35.35;5.70;;;10.60;99.90;;;;;;5063459;28;20033;-77
2023/09/24 03:41:16;;;;;;;32.97;6.32;;;10.60;99.90;;;;;;5063750;28;20052;-75
2023/09/24 03:43:42;;;;;;;9.55;5.90;;;10.60;99.90;;;;;;5064300;28;21873;-75
2023/09/24 03:46:09;;;;;;;9.73;5.93;;;10.60;99.90;;;;;;5064349;28;20063;-75
2023/09/24 03:48:35;;;;;;;12.23;7.00;;;10.70;99.90;;;;;;5064880;28;20025;-75
2023/09/24 03:51:01;;;;;;;12.95;7.55;;;10.60;99.90;;;;;;5062772;28;20033;-75
2023/09/24 03:53:27;;;;;;;16.05;8.05;;;10.70;99.90;;;;;;5063847;28;20040;-75
2023/09/24 03:55:53;;;;;;;11.80;7.80;;;10.70;99.90;;;;;;5063899;28;20021;-75
2023/09/24 03:58:18;;;;;;;10.52;7.18;;;10.70;99.90;;;;;;5062815;28;20481;-75
2023/09/24 04:00:44;;;;;;;13.10;7.93;;;10.60;99.90;;;;;;5062742;28;20032;-76
2023/09/24 04:03:10;;;;;;;12.23;7.63;;;10.70;99.90;;;;;;5063544;28;20039;-75
2023/09/24 04:05:35;;;;;;;10.95;7.45;;;10.70;99.90;;;;;;5065066;28;20033;-74
2023/09/24 04:08:03;;;;;;;14.05;7.93;;;10.80;99.90;;;;;;5064050;28;20104;-74
2023/09/24 04:10:30;;;;;;;14.52;8.10;;;10.80;99.90;;;;;;5065028;28;20115;-75
2023/09/24 04:12:57;;;;;;;13.15;7.70;;;10.80;99.90;;;;;;5064349;28;20070;-74
2023/09/24 04:15:28;;;;;;;11.20;6.95;;;10.80;99.90;;;;;;5064894;28;20477;-76
2023/09/24 04:17:59;;;;;;;13.65;7.55;;;10.70;99.90;;;;;;5062459;28;20108;-76
2023/09/24 04:20:31;;;;;;;13.70;7.10;;;10.70;99.90;;;;;;5063131;28;20103;-76
2023/09/24 04:22:57;;;;;;;13.15;7.43;;;10.70;99.90;;;;;;5063970;28;20520;-74
2023/09/24 04:25:24;;;;;;;12.68;8.02;;;10.70;99.90;;;;;;5064131;28;20037;-76
2023/09/24 04:27:50;;;;;;;11.52;7.95;;;10.70;99.90;;;;;;5063523;28;20962;-75
2023/09/24 04:30:21;;;;;;;13.45;7.82;;;10.80;99.90;;;;;;5063492;28;20555;-76
2023/09/24 04:32:51;;;;;;;14.30;7.97;;;10.70;99.90;;;;;;5061454;28;20031;-75
2023/09/24 04:35:19;;;;;;;18.30;8.73;;;10.70;99.90;;;;;;5062961;28;20029;-75
2023/09/24 04:37:45;;;;;;;16.48;8.77;;;10.70;99.90;;;;;;5063419;28;20040;-75
2023/09/24 04:40:14;;;;;;;15.57;8.77;;;10.70;99.90;;;;;;5062585;28;20029;-76
2023/09/24 04:42:41;;;;;;;21.90;9.60;;;10.70;99.90;;;;;;5062756;28;20078;-75
2023/09/24 04:45:07;;;;;;;166.15;10.73;;;10.70;99.90;;;;;;5062686;28;20076;-75
2023/09/24 04:47:34;;;;;;;26.15;8.82;;;10.60;99.90;;;;;;5062668;28;20032;-75
2023/09/24 04:49:59;;;;;;;246.52;14.98;;;10.60;99.90;;;;;;5063316;28;20021;-75
2023/09/24 04:52:25;;;;;;;204.88;11.57;;;10.60;99.90;;;;;;5064903;28;20029;-75
2023/09/24 04:54:52;;;;;;;137.43;12.45;;;10.50;99.90;;;;;;5063511;28;20587;-75
2023/09/24 04:57:18;;;;;;;275.95;16.70;;;10.40;99.90;;;;;;5062927;28;20489;-74
2023/09/24 04:59:44;;;;;;;151.02;14.20;;;10.40;99.90;;;;;;5063734;28;20021;-74
2023/09/24 05:02:09;;;;;;;194.25;15.23;;;10.40;99.90;;;;;;5063905;28;20031;-75
2023/09/24 05:04:35;;;;;;;309.67;18.58;;;10.40;99.90;;;;;;5062549;28;20054;-74
2023/09/24 05:07:01;;;;;;;177.15;18.45;;;10.40;99.90;;;;;;5062145;28;20025;-74
2023/09/24 05:09:26;;;;;;;243.45;17.58;;;10.30;99.90;;;;;;5062646;28;20025;-74
2023/09/24 05:11:52;;;;;;;477.10;26.63;;;10.30;99.90;;;;;;5061804;28;20115;-74
2023/09/24 05:14:18;;;;;;;215.90;21.40;;;10.30;99.90;;;;;;5063168;28;20037;-74
2023/09/24 05:16:44;;;;;;;289.20;21.48;;;10.20;99.90;;;;;;5062981;28;20033;-74
2023/09/24 05:19:10;;;;;;;156.35;22.70;;;10.30;99.90;;;;;;5061465;28;20024;-73
2023/09/24 05:21:35;;;;;;;198.02;20.00;;;10.30;99.90;;;;;;5062022;28;20017;-73
2023/09/24 05:24:03;;;;;;;234.18;22.48;;;10.30;99.90;;;;;;5061706;28;20118;-74
2023/09/24 05:26:28;;;;;;;168.07;18.50;;;10.40;99.90;;;;;;5062175;28;20021;-71
2023/09/24 05:28:54;;;;;;;195.70;21.92;;;10.30;99.90;;;;;;5062442;28;20033;-72
2023/09/24 05:31:20;;;;;;;199.93;20.70;;;10.30;99.90;;;;;;5063743;28;20029;-71
2023/09/24 05:33:47;;;;;;;272.88;22.08;;;10.30;99.90;;;;;;5062198;28;20024;-71
2023/09/24 05:36:13;;;;;;;269.25;18.38;;;10.30;99.90;;;;;;5062635;28;20087;-71
2023/09/24 05:38:39;;;;;;;223.25;17.98;;;10.20;99.90;;;;;;5063397;28;20025;-70
2023/09/24 05:41:05;;;;;;;292.40;18.38;;;10.30;99.90;;;;;;5061552;28;20025;-72
2023/09/24 05:43:31;;;;;;;222.63;18.65;;;10.30;99.90;;;;;;5062338;28;20031;-72
2023/09/24 05:45:57;;;;;;;257.55;17.80;;;10.10;99.90;;;;;;5062998;28;20111;-72
2023/09/24 05:48:22;;;;;;;166.25;16.30;;;10.20;99.90;;;;;;5063130;28;20108;-71
2023/09/24 05:50:48;;;;;;;244.85;17.65;;;10.40;99.90;;;;;;5062966;28;20035;-71
2023/09/24 05:53:16;;;;;;;158.35;14.70;;;10.20;99.90;;;;;;5061553;28;21221;-71
2023/09/24 05:55:52;;;;;;;194.25;15.38;;;10.20;99.90;;;;;;5061302;28;20033;-73
2023/09/24 05:58:18;;;;;;;148.05;12.80;;;10.30;99.90;;;;;;5062633;28;20159;-72
2023/09/24 06:00:45;;;;;;;215.30;14.40;;;10.30;99.90;;;;;;5062069;28;20053;-70
2023/09/24 06:03:11;;;;;;;206.05;14.30;;;10.30;99.90;;;;;;5061793;28;20017;-72
2023/09/24 06:05:40;;;;;;;157.07;13.10;;;10.30;99.90;;;;;;5062657;28;20080;-70
2023/09/24 06:08:06;;;;;;;137.45;12.70;;;10.40;99.90;;;;;;5061508;28;20047;-72
2023/09/24 06:10:34;;;;;;;225.25;14.52;;;10.30;99.90;;;;;;5062151;28;20067;-70
2023/09/24 06:13:00;;;;;;;146.30;12.73;;;10.40;99.90;;;;;;5062232;28;20021;-73
2023/09/24 06:15:26;;;;;;;161.98;14.00;;;10.40;99.90;;;;;;5062164;28;20047;-74
2023/09/24 06:17:52;;;;;;;186.48;11.60;;;10.40;99.90;;;;;;5062286;28;20083;-72
2023/09/24 06:20:21;;;;;;;135.82;12.07;;;10.40;99.90;;;;;;5062669;28;20029;-72
2023/09/24 06:22:58;;;;;;;221.88;14.68;;;10.40;99.90;;;;;;5061613;28;20032;-71
2023/09/24 06:25:24;;;;;;;214.90;12.50;;;10.40;99.90;;;;;;5061208;28;20040;-73
2023/09/24 06:27:50;;;;;;;253.43;14.05;;;10.40;99.90;;;;;;5061555;28;20013;-72
2023/09/24 06:30:15;;;;;;;236.45;14.60;;;10.40;99.90;;;;;;5061527;28;20025;-73
2023/09/24 06:32:41;;;;;;;287.98;15.35;;;10.50;99.90;;;;;;5061627;28;20017;-73
2023/09/24 06:35:07;;;;;;;272.40;14.20;;;10.50;99.90;;;;;;5061884;28;20363;-72
2023/09/24 06:37:33;;;;;;;205.07;13.48;;;10.50;99.90;;;;;;5060596;28;20036;-73
2023/09/24 06:39:58;;;;;;;256.58;13.52;;;10.60;99.90;;;;;;5062210;28;20075;-73
2023/09/24 06:42:24;;;;;;;218.77;12.93;;;10.60;99.90;;;;;;5061337;28;20048;-71
2023/09/24 06:44:50;;;;;;;276.80;13.68;;;10.60;99.90;;;;;;5061601;28;20032;-71
2023/09/24 06:47:16;;;;;;;193.88;13.02;;;10.60;99.90;;;;;;5060717;28;20490;-73
2023/09/24 06:49:42;;;;;;;230.65;15.32;;;10.70;99.90;;;;;;5061723;28;20041;-73
2023/09/24 06:52:08;;;;;;;315.08;16.50;;;10.70;99.90;;;;;;5058747;28;20029;-74
2023/09/24 06:54:34;;;;;;;162.68;13.30;;;10.80;99.90;;;;;;5058042;28;20035;-73
2023/09/24 06:57:01;;;;;;;106.40;11.57;;;10.80;99.90;;;;;;5058580;28;20056;-74
2023/09/24 06:59:27;;;;;;;98.82;11.77;;;10.90;99.90;;;;;;5059854;28;20515;-75
2023/09/24 07:01:53;;;;;;;244.20;16.20;;;11.00;99.90;;;;;;5060805;28;20391;-74
2023/09/24 07:04:19;;;;;;;201.50;15.35;;;10.90;99.90;;;;;;5061458;28;20033;-74
2023/09/24 07:06:45;;;;;;;125.55;13.05;;;11.10;99.90;;;;;;5061841;28;20028;-73
2023/09/24 07:09:10;;;;;;;333.63;16.50;;;11.00;99.90;;;;;;5060779;28;20033;-73
2023/09/24 07:11:40;;;;;;;146.45;11.95;;;11.10;99.90;;;;;;5061618;28;20032;-74
2023/09/24 07:14:05;;;;;;;121.57;12.43;;;11.10;99.90;;;;;;5061021;28;20028;-74
2023/09/24 07:16:32;;;;;;;191.50;14.35;;;11.10;99.90;;;;;;5060250;28;20386;-72
2023/09/24 07:18:58;;;;;;;97.32;12.65;;;11.20;99.90;;;;;;5061174;28;20088;-72
2023/09/24 07:21:26;;;;;;;119.40;12.88;;;11.20;99.90;;;;;;5060179;28;20021;-73
2023/09/24 07:23:59;;;;;;;183.77;13.77;;;11.30;99.90;;;;;;5059994;28;20163;-74
2023/09/24 07:26:28;;;;;;;250.93;15.60;;;11.20;99.90;;;;;;5060592;28;20116;-71
2023/09/24 07:28:54;;;;;;;268.63;15.88;;;11.30;99.90;;;;;;5060502;28;20017;-73
2023/09/24 07:31:22;;;;;;;182.90;15.55;;;11.30;99.90;;;;;;5061345;28;20036;-74
2023/09/24 07:33:49;;;;;;;153.05;14.13;;;11.30;99.90;;;;;;5060546;28;20059;-72
2023/09/24 07:36:15;;;;;;;213.65;16.00;;;11.30;99.90;;;;;;5059800;28;20045;-72
2023/09/24 07:38:41;;;;;;;78.65;15.35;;;11.40;99.90;;;;;;5061170;28;20040;-72
2023/09/24 07:41:10;;;;;;;98.03;14.85;;;11.50;99.90;;;;;;5060614;28;20033;-72
2023/09/24 07:43:41;;;;;;;80.55;17.10;;;11.50;99.90;;;;;;5058500;28;20111;-74
2023/09/24 07:46:11;;;;;;;78.18;15.93;;;11.50;99.90;;;;;;5058045;28;20041;-75
2023/09/24 07:48:36;;;;;;;46.45;14.18;;;11.50;99.90;;;;;;5060029;28;20021;-74
2023/09/24 07:51:02;;;;;;;76.68;14.35;;;11.60;99.90;;;;;;5059537;28;20090;-74
2023/09/24 07:53:28;;;;;;;107.65;15.15;;;11.60;99.90;;;;;;5058447;28;20024;-72
2023/09/24 07:56:13;;;;;;;95.63;14.35;;;11.70;99.90;;;;;;5059153;28;20028;-71
2023/09/24 07:58:40;;;;;;;51.90;15.27;;;11.70;99.90;;;;;;5060022;28;20037;-73
2023/09/24 08:01:11;;;;;;;64.22;16.33;;;11.70;99.90;;;;;;5059028;28;20455;-71
2023/09/24 08:03:38;;;;;;;54.22;17.20;;;11.80;99.90;;;;;;5061333;28;20052;-73
2023/09/24 08:06:04;;;;;;;49.35;16.25;;;11.80;99.90;;;;;;5060453;28;20025;-73
2023/09/24 08:08:31;;;;;;;47.63;15.30;;;11.80;99.90;;;;;;5060873;28;20082;-75
2023/09/24 08:10:57;;;;;;;50.13;16.35;;;11.90;99.90;;;;;;5060753;28;20021;-73
2023/09/24 08:13:22;;;;;;;43.55;15.70;;;11.90;99.90;;;;;;5061708;28;20033;-72
2023/09/24 08:15:49;;;;;;;50.95;17.92;;;12.00;99.90;;;;;;5059797;28;20052;-72
2023/09/24 08:18:16;;;;;;;57.63;17.42;;;12.00;99.90;;;;;;5060393;28;20328;-70
2023/09/24 08:20:42;;;;;;;48.55;17.08;;;12.00;99.90;;;;;;5058507;28;20080;-72
2023/09/24 08:23:08;;;;;;;58.28;18.48;;;12.10;99.90;;;;;;5060645;28;20051;-73
2023/09/24 08:25:34;;;;;;;51.50;16.70;;;12.10;99.90;;;;;;5063092;28;20525;-73
2023/09/24 08:28:00;;;;;;;45.83;17.92;;;12.20;99.90;;;;;;5061363;28;20044;-73
2023/09/24 08:30:30;;;;;;;50.38;18.20;;;12.20;99.90;;;;;;5063599;28;20024;-74
2023/09/24 08:32:57;;;;;;;50.13;18.55;;;12.20;99.90;;;;;;5062234;28;20057;-75
2023/09/24 08:35:22;;;;;;;53.42;17.90;;;12.30;99.90;;;;;;5062241;28;20029;-73
2023/09/24 08:37:49;;;;;;;48.22;16.90;;;12.30;99.90;;;;;;5063792;28;20088;-72
2023/09/24 08:40:16;;;;;;;51.10;17.88;;;12.40;99.90;;;;;;5064381;28;20048;-72
2023/09/24 08:42:45;;;;;;;47.45;17.65;;;12.40;99.90;;;;;;5063204;28;20021;-73
2023/09/24 08:45:14;;;;;;;48.35;17.70;;;12.50;99.90;;;;;;5063990;28;20037;-72
2023/09/24 08:47:40;;;;;;;39.38;16.08;;;12.50;99.90;;;;;;5064021;28;20110;-71
2023/09/24 08:50:07;;;;;;;41.80;15.70;;;12.60;99.90;;;;;;5063324;28;20029;-71
2023/09/24 08:52:39;;;;;;;46.05;17.00;;;12.60;99.90;;;;;;5063986;28;20068;-71
2023/09/24 08:55:06;;;;;;;41.17;16.75;;;12.70;99.90;;;;;;5062045;28;20021;-70
2023/09/24 08:57:34;;;;;;;42.85;17.98;;;12.80;99.90;;;;;;5062183;28;20082;-72
2023/09/24 09:00:01;;;;;;;39.35;18.17;;;12.80;99.90;;;;;;5064024;28;20020;-73
2023/09/24 09:02:28;;;;;;;44.67;17.75;;;12.90;99.90;;;;;;5063488;28;20025;-74
2023/09/24 09:04:55;;;;;;;38.33;17.13;;;12.90;99.90;;;;;;5056893;28;20052;-72
2023/09/24 09:07:20;;;;;;;43.13;18.00;;;13.00;99.90;;;;;;5064071;28;20393;-69
2023/09/24 09:09:55;;;;;;;41.45;17.95;;;13.10;99.90;;;;;;5061579;28;20698;-69
2023/09/24 09:12:23;;;;;;;44.63;19.48;;;13.10;99.90;;;;;;5062717;28;20029;-73
2023/09/24 09:14:49;;;;;;;41.97;20.15;;;13.20;99.90;;;;;;5059385;28;20508;-72
2023/09/24 09:17:15;;;;;;;40.78;20.20;;;13.30;99.90;;;;;;5062406;28;20044;-71
2023/09/24 09:19:56;;;;;;;36.30;18.88;;;13.30;99.90;;;;;;5062116;28;20021;-70
2023/09/24 09:22:29;;;;;;;38.10;18.27;;;13.40;99.90;;;;;;5064096;28;20025;-71
2023/09/24 09:25:07;;;;;;;34.97;18.33;;;13.40;99.90;;;;;;5061111;28;20041;-69
2023/09/24 09:27:42;;;;;;;38.03;18.55;;;13.50;99.90;;;;;;5063255;28;20052;-72
2023/09/24 09:30:18;;;;;;;36.85;18.35;;;13.60;99.90;;;;;;5061913;28;20498;-72
2023/09/24 09:32:46;;;;;;;37.22;19.40;;;13.70;99.90;;;;;;5062997;28;20039;-71
2023/09/24 09:35:14;;;;;;;34.60;19.30;;;13.80;99.90;;;;;;5062355;28;20124;-69
2023/09/24 09:37:41;;;;;;;37.92;20.67;;;13.90;99.90;;;;;;5063073;28;20023;-70
2023/09/24 09:40:08;;;;;;;34.97;19.55;;;14.00;99.90;;;;;;5061503;28;20117;-70
2023/09/24 09:42:34;;;;;;;41.30;19.67;;;14.20;99.90;;;;;;5062646;28;20024;-70
2023/09/24 09:45:08;;;;;;;32.25;19.42;;;14.30;99.90;;;;;;5063246;28;20470;-68
2023/09/24 09:47:39;;;;;;;34.53;19.85;;;14.40;99.90;;;;;;5062504;28;20017;-70
2023/09/24 09:50:07;;;;;;;31.98;19.67;;;14.50;99.90;;;;;;5063411;28;20818;-69
2023/09/24 09:52:37;;;;;;;31.90;19.83;;;14.50;99.90;;;;;;5063366;28;20029;-70
2023/09/24 09:55:04;;;;;;;32.97;18.23;;;14.60;99.90;;;;;;5061815;28;20034;-71
2023/09/24 09:57:34;;;;;;;29.92;17.83;;;14.60;99.90;;;;;;5063197;28;20072;-68
2023/09/24 10:00:10;;;;;;;28.20;17.15;;;14.80;99.90;;;;;;5061868;28;20071;-72
2023/09/24 10:02:38;;;;;;;29.27;17.17;;;15.00;99.90;;;;;;5061355;28;20485;-70
2023/09/24 10:05:06;;;;;;;25.02;16.75;;;15.30;99.90;;;;;;5063176;28;20137;-72
2023/09/24 10:07:36;;;;;;;29.25;16.55;;;15.30;99.90;;;;;;5062423;28;20021;-72
2023/09/24 10:10:31;;;;;;;24.20;15.40;;;15.20;99.90;;;;;;5062336;28;20033;-71
2023/09/24 10:13:02;;;;;;;23.02;13.63;;;15.20;99.90;;;;;;5062543;28;20504;-69
2023/09/24 10:15:30;;;;;;;28.13;14.30;;;15.40;99.90;;;;;;5061632;28;20425;-72
2023/09/24 10:18:15;;;;;;;19.92;11.70;;;15.60;99.90;;;;;;5062535;28;20025;-71
2023/09/24 10:20:49;;;;;;;23.75;12.55;;;15.80;99.90;;;;;;5060349;28;20025;-71
2023/09/24 10:23:30;;;;;;;24.08;12.30;;;16.10;99.90;;;;;;5062412;28;20158;-72
2023/09/24 10:26:01;;;;;;;22.30;12.02;;;16.20;99.90;;;;;;5060610;28;20041;-69
2023/09/24 10:28:51;;;;;;;20.48;11.05;;;16.30;99.90;;;;;;5062628;28;20020;-72
2023/09/24 10:31:21;;;;;;;20.02;10.63;;;16.40;99.90;;;;;;5060990;28;20028;-71
2023/09/24 10:33:56;;;;;;;20.70;10.30;;;16.50;99.90;;;;;;5061931;28;20025;-69
2023/09/24 10:36:29;;;;;;;17.45;9.25;;;16.50;99.90;;;;;;5061779;28;20048;-70
2023/09/24 10:39:09;;;;;;;15.45;8.80;;;16.70;99.90;;;;;;5062271;28;20028;-70
2023/09/24 10:41:36;;;;;;;18.15;8.98;;;16.90;99.90;;;;;;5062243;28;20020;-70
2023/09/24 10:44:24;;;;;;;13.15;7.65;;;16.90;99.90;;;;;;5061714;28;20163;-71
2023/09/24 10:46:50;;;;;;;16.88;9.02;;;17.00;99.90;;;;;;5061119;28;20078;-70
2023/09/24 10:49:19;;;;;;;19.50;7.47;;;17.10;99.90;;;;;;5061609;28;20041;-73
2023/09/24 10:51:45;;;;;;;13.68;6.78;;;17.30;99.90;;;;;;5061810;28;20040;-69
2023/09/24 10:54:16;;;;;;;13.20;7.10;;;17.40;99.90;;;;;;5060678;28;20029;-70
2023/09/24 10:56:47;;;;;;;15.77;7.03;;;17.40;99.90;;;;;;5059129;28;20024;-70
2023/09/24 10:59:14;;;;;;;11.63;8.00;;;17.60;99.90;;;;;;5060359;28;20088;-69
2023/09/24 11:01:40;;;;;;;12.73;7.40;;;17.70;99.90;;;;;;5060920;28;20469;-71
2023/09/24 11:04:08;;;;;;;17.92;7.38;;;17.80;99.90;;;;;;5060289;28;20069;-71
2023/09/24 11:06:33;;;;;;;15.60;7.60;;;17.80;99.90;;;;;;5061554;28;20028;-74
2023/09/24 11:09:20;;;;;;;12.18;7.20;;;17.80;99.90;;;;;;5062100;28;20021;-71
2023/09/24 11:11:46;;;;;;;13.93;6.90;;;17.80;99.90;;;;;;5061082;28;20092;-72
2023/09/24 11:14:23;;;;;;;12.65;5.80;;;17.90;99.90;;;;;;5061295;28;20048;-71
2023/09/24 11:16:53;;;;;;;15.18;5.65;;;18.00;99.90;;;;;;5060557;28;20029;-72
2023/09/24 11:19:45;;;;;;;10.40;4.43;;;18.10;99.90;;;;;;5060842;28;20029;-74
2023/09/24 11:22:20;;;;;;;9.80;4.60;;;18.20;99.90;;;;;;5061501;28;20051;-72
2023/09/24 11:25:14;;;;;;;11.40;5.43;;;18.20;99.90;;;;;;5060956;28;20123;-72
2023/09/24 11:27:50;;;;;;;12.88;4.88;;;18.30;99.90;;;;;;5061652;28;20087;-72
2023/09/24 11:30:19;;;;;;;8.27;3.70;;;18.30;99.90;;;;;;5058660;28;20318;-70
2023/09/24 11:32:46;;;;;;;7.50;3.40;;;18.40;99.90;;;;;;5060513;28;20429;-68
2023/09/24 11:35:13;;;;;;;10.07;3.67;;;18.40;99.90;;;;;;5060142;28;20043;-69
2023/09/24 11:37:50;;;;;;;7.70;3.75;;;18.40;99.90;;;;;;5060619;28;20033;-71
2023/09/24 11:40:33;;;;;;;11.75;3.80;;;18.50;99.90;;;;;;5058777;28;20025;-69
2023/09/24 11:43:00;;;;;;;8.27;3.33;;;18.50;99.90;;;;;;5059906;28;20040;-70
2023/09/24 11:45:49;;;;;;;7.82;3.47;;;18.50;99.90;;;;;;5061218;28;20045;-71
2023/09/24 11:48:16;;;;;;;6.72;3.72;;;18.60;99.90;;;;;;5060960;28;20033;-70
2023/09/24 11:50:44;;;;;;;12.85;3.30;;;18.60;99.90;;;;;;5061361;28;20021;-69
2023/09/24 11:53:10;;;;;;;6.88;2.90;;;18.70;99.90;;;;;;5060607;28;20040;-70
2023/09/24 11:55:36;;;;;;;10.02;3.08;;;18.70;99.90;;;;;;5061031;28;20021;-71
2023/09/24 11:58:04;;;;;;;6.88;3.05;;;18.80;99.90;;;;;;5061349;28;20021;-71
2023/09/24 12:00:29;;;;;;;8.65;2.80;;;18.90;99.90;;;;;;5063867;28;20052;-69
2023/09/24 12:02:55;;;;;;;9.75;3.60;;;18.90;99.90;;;;;;5065663;28;20017;-70
2023/09/24 12:05:21;;;;;;;5.97;2.67;;;19.00;99.90;;;;;;5063932;28;20033;-69
2023/09/24 12:07:49;;;;;;;10.13;3.00;;;19.00;99.90;;;;;;5065199;28;20032;-71
2023/09/24 12:10:15;;;;;;;17.63;3.40;;;19.00;99.90;;;;;;5063072;28;20083;-70
2023/09/24 12:12:40;;;;;;;8.95;3.03;;;19.00;99.90;;;;;;5065036;28;20025;-71
2023/09/24 12:15:07;;;;;;;8.77;2.85;;;19.10;99.90;;;;;;5063353;28;21408;-70
2023/09/24 12:17:32;;;;;;;7.00;2.55;;;19.30;99.90;;;;;;5063536;28;20051;-71
2023/09/24 12:19:58;;;;;;;13.30;2.65;;;19.40;99.90;;;;;;5064768;28;20482;-69
2023/09/24 12:22:24;;;;;;;13.90;3.15;;;19.40;99.90;;;;;;5064810;28;20067;-71
2023/09/24 12:24:50;;;;;;;11.13;2.60;;;19.50;99.90;;;;;;5065130;28;20051;-70
2023/09/24 12:27:15;;;;;;;6.25;2.55;;;19.50;99.90;;;;;;5064473;28;20029;-72
2023/09/24 12:29:41;;;;;;;8.02;2.67;;;19.60;99.90;;;;;;5063460;28;20025;-70
2023/09/24 12:32:06;;;;;;;6.07;2.17;;;19.70;99.90;;;;;;5063532;28;20097;-71
2023/09/24 12:34:32;;;;;;;6.28;2.40;;;19.90;99.90;;;;;;5063956;28;20058;-72